NVVV

Port Vila Bauerfield Airport

Port Vila, Vanuatu
TAF NVVV 141600Z 1418/1518 12005KT 9999 SCT020
Issued Valid From Valid To
Dec-14 @ 16:00 UTC
(6 hours ago)
Dec-14 @ 18:00 UTC
(4 hours ago)
Dec-15 @ 18:00 UTC
(in 20 hours)
Dec-14 @ 18:00 to Dec-15 @ 18:00
TAF NVVV 141600Z 1418/1518 12005KT 9999 SCT020
Wind Visibility Clouds
120° at 5 knots 10,000+ meters
  • Scattered at 2,000' AGL
TAF NVVV 141600Z 1418/1518 12005KT 9999 SCT020
Issued Dec-14 @ 16:00 UTC
(6 hours ago)
Valid From Dec-14 @ 18:00 UTC
(4 hours ago)
Valid To Dec-15 @ 18:00 UTC
(in 20 hours)
Dec-14 @ 18:00 - Dec-15 @ 18:00
Wind Visibility
120° at 5 knots 10,000+ meters
Clouds
  • Scattered at 2,000' AGL